Vernal Regional Airport
KVEL : now visible

Airfield :











YOU CAN JOIN US ON...

 
LOGIN :

Register | Disclaimer

   EN    FR    IT 

 









Legend :    VFR   Marginal VFR   IFR   Intensive IFR   Very Intensive IFR
Visi :
Ceiling :
>= 8 km
>= 3000ft
5 to 8 km
1000 to 3000 ft
1500m to 5 km
500 to 1000 ft
800 to 1500m
200 to 500 ft
< 800m
< 200 ft
Symbols :   Thunderstorms  Fog  Heavy snow  Heavy precipitations  Wind > 20 kt






- Airport Elevation : 5278 ft


KVEL - Vernal Regional

CURRENT METAR :
  • 092053Z AUTO 15004KT 10SM CLR 04/M01 A3003 RMK AO2 SLP176 T00441011 58005

EXPIRED METARs :
  • 091953Z AUTO VRB03KT 10SM FEW018 03/M02 A3004 RMK AO2 SLP185 T00331017
  • 091941Z AUTO 16004KT 10SM SCT018 04/M01 A3004 RMK AO2 T00391011
  • 091934Z AUTO VRB05KT 10SM BKN018 04/M01 A3004 RMK AO2 T00391011
  • 091853Z AUTO VRB03KT 10SM CLR 03/M01 A3005 RMK AO2 SLP186 T00281011

TAF KVEL
Valid from the 09 at 18:00 until the 10 at 18:00 UTC


091730Z 0918/1018 11004KT P6SM BKN005
FM091900 10005KT P6SM FEW040 FEW200
FM092200 VRB04KT P6SM FEW040 FEW200
FM100300 VRB03KT P6SM SCT045 BKN200
FM100600 00000KT P6SM SCT060 BKN250



MET'MAP, your aeronautical weather chart ! - Copyright ORBIFLY December 2007 - Disclaimer

ORBIFLY MET'MAP TEAM :

Programming & Development : Alexandra Zaïnal
Concept & original design : Baudouin d'Aumeries
Assistance for programming : Marc-Olivier Méhu
Technical & hardware support : Manuel Goepfert

Contact : metmap@orbifly.com




SOURCES & CREDITS :

   NOAA       Earth
Advisory